• Join FlightAware (Why Join?)
  • Login
  • US Flag 
09:02PM EDT


 

Airport Tracker/Info


-or-


 

Live Flight TrackerFlight Track Log ✈ USC110 ✈ 08-Jun-2013 ✈ KYIP - KDPA

Flight Track Log - Related Links

Times and Time Zones

All times are in EDT time to prevent confusion due to time zone crossing. See the USC110 flight status page for this flight to view local times or setup timezone preferences in your user account.

Time Position Orientation Groundspeed Altitude Reporting Facility
EDT Latitude Longitude Course Direction KTS MPH feet Rate Location/Type
12:32AM 42.2300 -83.5586 259° West 101 116 1,600  Level Cleveland Center
12:33AM 42.2269 -83.5892 262° West 104 120 2,800 1,380 Climbing Cleveland Center
12:34AM 42.2239 -83.6256 264° West 92 106 4,300 1,080 Climbing Cleveland Center
12:35AM 42.2231 -83.6647 268° West 124 143 5,000 300 Climbing Cleveland Center
12:36AM 42.2233 -83.7267 270° West 168 193 5,000  Level Cleveland Center
12:37AM 42.2175 -83.7878 263° West 172 198 5,000 900 Level Cleveland Center
12:38AM 42.2164 -83.8300 268° West 82 94 6,900 840 Climbing Cleveland Center
12:40AM 42.2086 -83.9547 265° West 141 162 8,000 300 Climbing Chicago Center
12:41AM 42.2075 -84.0164 269° West 158 182 8,000  Level Chicago Center
12:42AM 42.2036 -84.0783 265° West 165 190 8,000  Level Chicago Center
12:43AM 42.1989 -84.1428 264° West 171 197 8,000  Level Chicago Center
12:44AM 42.1958 -84.2053 266° West 169 194 8,000  Level Chicago Center
12:45AM 42.1883 -84.2672 261° West 168 193 8,000  Level Chicago Center
12:46AM 42.1767 -84.3286 256° West 169 194 8,000  Level Chicago Center
12:47AM 42.1647 -84.3894 255° West 169 194 8,000  Level Chicago Center
12:48AM 42.1536 -84.4503 256° West 168 193 8,000  Level Chicago Center
12:49AM 42.1428 -84.5097 256° West 166 191 8,000  Level Chicago Center
12:50AM 42.1311 -84.5689 255° West 169 194 8,000  Level Chicago Center
12:51AM 42.1194 -84.6275 255° West 165 190 8,000  Level Chicago Center
12:52AM 42.1069 -84.6972 256° West 161 185 8,000  Level Chicago Center
12:53AM 42.0953 -84.7561 255° West 163 188 8,000  Level Chicago Center
12:54AM 42.0836 -84.8147 255° West 163 188 8,000  Level Chicago Center
12:55AM 42.0725 -84.8725 255° West 162 186 8,000  Level Chicago Center
12:56AM 42.0617 -84.9317 256° West 163 188 8,000  Level Chicago Center
12:57AM 42.0494 -84.9897 254° West 162 186 8,000  Level Chicago Center
12:58AM 42.0383 -85.0483 256° West 162 186 8,000  Level Chicago Center
12:59AM 42.0267 -85.1064 255° West 162 186 8,000  Level Chicago Center
01:00AM 42.0147 -85.1644 255° West 162 186 8,000  Level Chicago Center
01:01AM 42.0036 -85.2217 255° West 160 184 8,000  Level Chicago Center
01:02AM 41.9917 -85.2803 255° West 163 188 8,000 -360 Level Chicago Center
01:03AM 41.9803 -85.3389 255° West 163 188 7,300 -1,560 Descending Chicago Center
01:04AM 41.9678 -85.4011 255° West 170 196 4,900 -1,560 Descending Chicago Center
01:05AM 41.9561 -85.4647 256° West 174 200 4,200 -480 Descending Chicago Center
01:06AM 41.9417 -85.5300 253° West 181 208 4,000 -180 Descending Chicago Center
01:07AM 41.9297 -85.5919 255° West 176 203 3,900  Descending Chicago Center
01:08AM 41.9178 -85.6531 255° West 172 198 4,000  Climbing Chicago Center
01:09AM 41.9050 -85.7139 254° West 171 197 4,000  Level Chicago Center
01:10AM 41.8933 -85.7739 255° West 169 194 4,000  Level Chicago Center
01:11AM 41.8803 -85.8336 254° West 168 193 4,000  Level Chicago Center
01:12AM 41.8675 -85.8931 254° West 167 192 4,000  Level Chicago Center
01:13AM 41.8550 -85.9525 254° West 166 191 4,000  Level Chicago Center
01:14AM 41.8411 -86.0242 255° West 166 191 4,000  Level Chicago Center
01:15AM 41.8289 -86.0847 255° West 167 192 4,000  Level Chicago Center
01:16AM 41.8164 -86.1447 254° West 169 194 4,000  Level Chicago Center
01:17AM 41.8033 -86.2044 254° West 167 192 4,000  Level Chicago Center
01:18AM 41.7922 -86.2650 256° West 169 194 4,000  Level Chicago Center
01:19AM 41.7789 -86.3272 254° West 172 198 4,000  Level Chicago Center
01:20AM 41.7661 -86.3881 254° West 172 198 4,000  Level Chicago Center
01:21AM 41.7503 -86.4606 254° West 170 196 4,000  Level Chicago Center
01:22AM 41.7372 -86.5211 254° West 171 197 4,000  Level Chicago Center
01:23AM 41.7250 -86.5825 255° West 171 197 4,000  Level Chicago Center
01:24AM 41.7122 -86.6436 254° West 171 197 4,000  Level Chicago Center
01:25AM 41.6981 -86.7075 253° West 172 198 4,000  Level Chicago Center
01:26AM 41.6853 -86.7686 254° West 171 197 4,000  Level Chicago Center
01:27AM 41.6714 -86.8303 253° West 174 200 4,000  Level Chicago Center
01:28AM 41.6581 -86.8914 254° West 173 199 4,000  Level Chicago Center
01:29AM 41.6464 -86.9542 256° West 174 200 4,000  Level Chicago Center
01:31AM 41.6325 -87.0161 253° West 175 201 4,000  Level Chicago Center
01:31AM 41.6189 -87.0775 253° West 175 201 4,000  Level Chicago Center
01:33AM 41.6061 -87.1397 255° West 174 200 4,000  Level Chicago Center
01:34AM 41.5911 -87.2025 252° West 177 204 4,000  Level Chicago Center
01:35AM 41.5783 -87.2650 255° West 176 203 4,000  Level Chicago Center
01:36AM 41.5647 -87.3278 254° West 176 203 4,000  Level Chicago Center
01:37AM 41.5519 -87.3900 255° West 176 203 4,000  Level Chicago Center
01:38AM 41.5547 -87.4514 273° West 184 212 4,000  Level Chicago Center
01:39AM 41.5811 -87.5064 303° West 179 206 4,000  Level Chicago Center
01:40AM 41.6058 -87.5633 300° West 180 207 4,000  Level Chicago Center
01:41AM 41.6300 -87.6181 301° West 177 204 4,000  Level Chicago Center
01:42AM 41.6542 -87.6742 300° West 176 203 4,000  Level Chicago Center
01:43AM 41.6789 -87.7292 301° West 175 201 4,000  Level Chicago Center
01:44AM 41.7089 -87.7956 301° West 175 201 4,000  Level Chicago Center
01:45AM 41.7325 -87.8525 299° West 176 203 4,000  Level Chicago Center
01:46AM 41.7581 -87.9078 302° West 176 203 4,000  Level Chicago Center
01:47AM 41.7822 -87.9628 301° West 175 201 4,000  Level Chicago Center
01:48AM 41.8067 -88.0178 301° West 174 200 4,000 -60 Level Chicago Center
01:49AM 41.8256 -88.0767 293° West 173 199 3,900 -600 Descending Chicago Center
01:50AM 41.8450 -88.1392 293° West 177 204 2,900 -900 Descending Chicago Center
01:51AM 41.8653 -88.2011 294° West 181 208 2,100 -840 Descending Chicago Center